sensor_id;sensor_type;location;lat;lon;timestamp;P1;durP1;ratioP1;P2;durP2;ratioP2
61085;SDS011;46967;48.876;2.136;2023-05-14T00:00:58;18.15;;;11.63;;
61085;SDS011;46967;48.876;2.136;2023-05-14T00:03:23;19.73;;;11.50;;
61085;SDS011;46967;48.876;2.136;2023-05-14T00:05:48;16.70;;;10.98;;
61085;SDS011;46967;48.876;2.136;2023-05-14T00:08:13;19.33;;;11.50;;
61085;SDS011;46967;48.876;2.136;2023-05-14T00:10:39;17.35;;;11.38;;
61085;SDS011;46967;48.876;2.136;2023-05-14T00:13:04;20.15;;;11.80;;
61085;SDS011;46967;48.876;2.136;2023-05-14T00:15:30;19.95;;;11.25;;
61085;SDS011;46967;48.876;2.136;2023-05-14T00:17:55;19.38;;;12.23;;
61085;SDS011;46967;48.876;2.136;2023-05-14T00:20:20;17.00;;;11.13;;
61085;SDS011;46967;48.876;2.136;2023-05-14T00:22:46;15.85;;;11.32;;
61085;SDS011;46967;48.876;2.136;2023-05-14T00:25:11;20.33;;;11.77;;
61085;SDS011;46967;48.876;2.136;2023-05-14T00:27:36;24.05;;;11.40;;
61085;SDS011;46967;48.876;2.136;2023-05-14T00:30:03;16.33;;;11.27;;
61085;SDS011;46967;48.876;2.136;2023-05-14T00:32:30;17.50;;;10.90;;
61085;SDS011;46967;48.876;2.136;2023-05-14T00:34:56;15.55;;;11.57;;
61085;SDS011;46967;48.876;2.136;2023-05-14T00:37:21;17.55;;;11.52;;
61085;SDS011;46967;48.876;2.136;2023-05-14T00:39:47;16.58;;;10.95;;
61085;SDS011;46967;48.876;2.136;2023-05-14T00:42:12;21.70;;;11.45;;
61085;SDS011;46967;48.876;2.136;2023-05-14T00:44:37;19.77;;;11.35;;
61085;SDS011;46967;48.876;2.136;2023-05-14T00:47:03;17.55;;;11.18;;
61085;SDS011;46967;48.876;2.136;2023-05-14T00:49:28;17.17;;;10.85;;
61085;SDS011;46967;48.876;2.136;2023-05-14T00:51:54;20.73;;;11.82;;
61085;SDS011;46967;48.876;2.136;2023-05-14T00:54:22;16.83;;;11.48;;
61085;SDS011;46967;48.876;2.136;2023-05-14T00:56:48;19.73;;;11.18;;
61085;SDS011;46967;48.876;2.136;2023-05-14T00:59:14;16.60;;;11.63;;
61085;SDS011;46967;48.876;2.136;2023-05-14T01:01:40;19.52;;;11.00;;
61085;SDS011;46967;48.876;2.136;2023-05-14T01:04:06;18.95;;;11.15;;
61085;SDS011;46967;48.876;2.136;2023-05-14T01:06:55;17.02;;;11.52;;
61085;SDS011;46967;48.876;2.136;2023-05-14T01:09:28;14.98;;;11.35;;
61085;SDS011;46967;48.876;2.136;2023-05-14T01:12:21;17.95;;;12.20;;
61085;SDS011;46967;48.876;2.136;2023-05-14T01:17:28;16.73;;;11.40;;
61085;SDS011;46967;48.876;2.136;2023-05-14T01:19:57;16.65;;;11.88;;
61085;SDS011;46967;48.876;2.136;2023-05-14T01:22:23;18.02;;;11.15;;
61085;SDS011;46967;48.876;2.136;2023-05-14T01:24:48;18.35;;;11.90;;
61085;SDS011;46967;48.876;2.136;2023-05-14T01:27:21;16.92;;;11.57;;
61085;SDS011;46967;48.876;2.136;2023-05-14T01:29:50;17.35;;;11.93;;
61085;SDS011;46967;48.876;2.136;2023-05-14T01:32:19;17.00;;;12.18;;
61085;SDS011;46967;48.876;2.136;2023-05-14T01:34:48;15.68;;;11.52;;
61085;SDS011;46967;48.876;2.136;2023-05-14T01:37:14;15.77;;;11.80;;
61085;SDS011;46967;48.876;2.136;2023-05-14T01:39:41;20.33;;;10.98;;
61085;SDS011;46967;48.876;2.136;2023-05-14T01:42:06;21.58;;;12.35;;
61085;SDS011;46967;48.876;2.136;2023-05-14T01:44:32;19.67;;;12.43;;
61085;SDS011;46967;48.876;2.136;2023-05-14T01:46:58;15.48;;;11.48;;
61085;SDS011;46967;48.876;2.136;2023-05-14T01:49:23;17.83;;;10.98;;
61085;SDS011;46967;48.876;2.136;2023-05-14T01:51:49;18.38;;;11.32;;
61085;SDS011;46967;48.876;2.136;2023-05-14T01:54:14;18.75;;;12.02;;
61085;SDS011;46967;48.876;2.136;2023-05-14T01:56:39;22.65;;;13.68;;
61085;SDS011;46967;48.876;2.136;2023-05-14T01:59:05;23.88;;;13.15;;
61085;SDS011;46967;48.876;2.136;2023-05-14T02:01:30;24.88;;;14.32;;
61085;SDS011;46967;48.876;2.136;2023-05-14T02:03:56;24.02;;;14.93;;
61085;SDS011;46967;48.876;2.136;2023-05-14T02:06:21;20.10;;;14.68;;
61085;SDS011;46967;48.876;2.136;2023-05-14T02:08:47;20.40;;;14.07;;
61085;SDS011;46967;48.876;2.136;2023-05-14T02:11:12;22.77;;;16.42;;
61085;SDS011;46967;48.876;2.136;2023-05-14T02:13:37;26.83;;;16.17;;
61085;SDS011;46967;48.876;2.136;2023-05-14T02:16:03;27.65;;;17.88;;
61085;SDS011;46967;48.876;2.136;2023-05-14T02:18:29;19.38;;;15.63;;
61085;SDS011;46967;48.876;2.136;2023-05-14T02:20:54;25.63;;;17.23;;
61085;SDS011;46967;48.876;2.136;2023-05-14T02:23:19;23.15;;;15.75;;
61085;SDS011;46967;48.876;2.136;2023-05-14T02:25:45;24.02;;;17.40;;
61085;SDS011;46967;48.876;2.136;2023-05-14T02:28:10;20.25;;;15.88;;
61085;SDS011;46967;48.876;2.136;2023-05-14T02:30:35;21.50;;;17.30;;
61085;SDS011;46967;48.876;2.136;2023-05-14T02:33:01;28.38;;;18.33;;
61085;SDS011;46967;48.876;2.136;2023-05-14T02:35:26;28.73;;;18.48;;
61085;SDS011;46967;48.876;2.136;2023-05-14T02:37:51;26.38;;;18.65;;
61085;SDS011;46967;48.876;2.136;2023-05-14T02:40:17;27.92;;;18.35;;
61085;SDS011;46967;48.876;2.136;2023-05-14T02:42:42;26.38;;;19.50;;
61085;SDS011;46967;48.876;2.136;2023-05-14T02:45:07;29.25;;;19.45;;
61085;SDS011;46967;48.876;2.136;2023-05-14T02:47:33;26.45;;;19.50;;
61085;SDS011;46967;48.876;2.136;2023-05-14T02:49:58;28.73;;;19.73;;
61085;SDS011;46967;48.876;2.136;2023-05-14T02:52:24;22.92;;;19.23;;
61085;SDS011;46967;48.876;2.136;2023-05-14T02:54:49;29.92;;;19.50;;
61085;SDS011;46967;48.876;2.136;2023-05-14T02:57:14;25.08;;;19.55;;
61085;SDS011;46967;48.876;2.136;2023-05-14T02:59:40;26.92;;;19.90;;
61085;SDS011;46967;48.876;2.136;2023-05-14T03:02:05;29.52;;;20.00;;
61085;SDS011;46967;48.876;2.136;2023-05-14T03:04:30;27.27;;;19.08;;
61085;SDS011;46967;48.876;2.136;2023-05-14T03:06:56;32.22;;;20.73;;
61085;SDS011;46967;48.876;2.136;2023-05-14T03:09:21;27.77;;;18.65;;
61085;SDS011;46967;48.876;2.136;2023-05-14T03:11:46;24.45;;;19.42;;
61085;SDS011;46967;48.876;2.136;2023-05-14T03:14:12;26.05;;;18.27;;
61085;SDS011;46967;48.876;2.136;2023-05-14T03:16:37;29.27;;;20.13;;
61085;SDS011;46967;48.876;2.136;2023-05-14T03:19:04;28.30;;;19.45;;
61085;SDS011;46967;48.876;2.136;2023-05-14T03:21:29;30.15;;;19.65;;
61085;SDS011;46967;48.876;2.136;2023-05-14T03:23:55;28.50;;;19.55;;
61085;SDS011;46967;48.876;2.136;2023-05-14T03:26:21;25.75;;;18.77;;
61085;SDS011;46967;48.876;2.136;2023-05-14T03:28:46;28.48;;;20.90;;
61085;SDS011;46967;48.876;2.136;2023-05-14T03:31:11;27.20;;;19.50;;
61085;SDS011;46967;48.876;2.136;2023-05-14T03:33:37;29.35;;;20.67;;
61085;SDS011;46967;48.876;2.136;2023-05-14T03:36:02;33.17;;;20.55;;
61085;SDS011;46967;48.876;2.136;2023-05-14T03:38:28;33.90;;;22.17;;
61085;SDS011;46967;48.876;2.136;2023-05-14T03:40:53;32.50;;;23.17;;
61085;SDS011;46967;48.876;2.136;2023-05-14T03:43:18;34.88;;;22.40;;
61085;SDS011;46967;48.876;2.136;2023-05-14T03:45:44;29.85;;;21.35;;
61085;SDS011;46967;48.876;2.136;2023-05-14T03:48:09;34.75;;;23.63;;
61085;SDS011;46967;48.876;2.136;2023-05-14T03:50:34;34.67;;;23.20;;
61085;SDS011;46967;48.876;2.136;2023-05-14T03:53:00;34.53;;;22.80;;
61085;SDS011;46967;48.876;2.136;2023-05-14T03:55:25;36.55;;;23.17;;
61085;SDS011;46967;48.876;2.136;2023-05-14T03:57:51;30.50;;;22.17;;
61085;SDS011;46967;48.876;2.136;2023-05-14T04:00:16;36.17;;;23.23;;
61085;SDS011;46967;48.876;2.136;2023-05-14T04:02:42;34.67;;;22.33;;
61085;SDS011;46967;48.876;2.136;2023-05-14T04:05:07;39.33;;;23.00;;
61085;SDS011;46967;48.876;2.136;2023-05-14T04:07:33;41.83;;;22.23;;
61085;SDS011;46967;48.876;2.136;2023-05-14T04:09:58;31.88;;;21.83;;
61085;SDS011;46967;48.876;2.136;2023-05-14T04:12:24;32.42;;;22.83;;
61085;SDS011;46967;48.876;2.136;2023-05-14T04:14:50;38.25;;;24.42;;
61085;SDS011;46967;48.876;2.136;2023-05-14T04:17:16;29.40;;;21.83;;
61085;SDS011;46967;48.876;2.136;2023-05-14T04:19:41;34.97;;;22.73;;
61085;SDS011;46967;48.876;2.136;2023-05-14T04:22:06;33.00;;;20.95;;
61085;SDS011;46967;48.876;2.136;2023-05-14T04:24:32;28.42;;;19.63;;
61085;SDS011;46967;48.876;2.136;2023-05-14T04:26:57;27.95;;;19.23;;
61085;SDS011;46967;48.876;2.136;2023-05-14T04:29:22;30.65;;;20.48;;
61085;SDS011;46967;48.876;2.136;2023-05-14T04:31:48;33.55;;;20.25;;
61085;SDS011;46967;48.876;2.136;2023-05-14T04:34:13;30.27;;;20.25;;
61085;SDS011;46967;48.876;2.136;2023-05-14T04:36:39;31.45;;;20.38;;
61085;SDS011;46967;48.876;2.136;2023-05-14T04:39:04;33.13;;;21.27;;
61085;SDS011;46967;48.876;2.136;2023-05-14T04:41:30;31.15;;;20.48;;
61085;SDS011;46967;48.876;2.136;2023-05-14T04:43:55;34.08;;;21.67;;
61085;SDS011;46967;48.876;2.136;2023-05-14T04:46:20;35.00;;;21.48;;
61085;SDS011;46967;48.876;2.136;2023-05-14T04:48:46;30.02;;;21.10;;
61085;SDS011;46967;48.876;2.136;2023-05-14T04:51:12;33.53;;;21.20;;
61085;SDS011;46967;48.876;2.136;2023-05-14T04:53:38;36.05;;;22.77;;
61085;SDS011;46967;48.876;2.136;2023-05-14T04:56:03;33.97;;;22.25;;
61085;SDS011;46967;48.876;2.136;2023-05-14T04:58:28;37.15;;;22.20;;
61085;SDS011;46967;48.876;2.136;2023-05-14T05:00:56;36.25;;;22.67;;
61085;SDS011;46967;48.876;2.136;2023-05-14T05:03:22;33.25;;;22.40;;
61085;SDS011;46967;48.876;2.136;2023-05-14T05:05:47;36.95;;;23.15;;
61085;SDS011;46967;48.876;2.136;2023-05-14T05:08:12;38.17;;;22.85;;
61085;SDS011;46967;48.876;2.136;2023-05-14T05:10:37;37.55;;;24.17;;
61085;SDS011;46967;48.876;2.136;2023-05-14T05:13:03;38.42;;;24.00;;
61085;SDS011;46967;48.876;2.136;2023-05-14T05:15:28;38.65;;;23.92;;
61085;SDS011;46967;48.876;2.136;2023-05-14T05:17:53;38.92;;;23.73;;
61085;SDS011;46967;48.876;2.136;2023-05-14T05:20:19;37.22;;;23.23;;
61085;SDS011;46967;48.876;2.136;2023-05-14T05:22:44;36.35;;;24.13;;
61085;SDS011;46967;48.876;2.136;2023-05-14T05:25:10;42.40;;;24.67;;
61085;SDS011;46967;48.876;2.136;2023-05-14T05:27:36;41.67;;;25.50;;
61085;SDS011;46967;48.876;2.136;2023-05-14T05:30:02;42.15;;;25.08;;
61085;SDS011;46967;48.876;2.136;2023-05-14T05:32:28;43.70;;;25.35;;
61085;SDS011;46967;48.876;2.136;2023-05-14T05:34:54;39.83;;;25.13;;
61085;SDS011;46967;48.876;2.136;2023-05-14T05:37:19;41.25;;;24.88;;
61085;SDS011;46967;48.876;2.136;2023-05-14T05:39:45;44.85;;;26.67;;
61085;SDS011;46967;48.876;2.136;2023-05-14T05:42:11;50.90;;;26.95;;
61085;SDS011;46967;48.876;2.136;2023-05-14T05:44:37;47.35;;;27.60;;
61085;SDS011;46967;48.876;2.136;2023-05-14T05:47:02;45.38;;;25.40;;
61085;SDS011;46967;48.876;2.136;2023-05-14T05:49:28;42.55;;;25.42;;
61085;SDS011;46967;48.876;2.136;2023-05-14T05:51:53;42.33;;;25.77;;
61085;SDS011;46967;48.876;2.136;2023-05-14T05:54:18;45.22;;;26.10;;
61085;SDS011;46967;48.876;2.136;2023-05-14T05:56:44;39.72;;;25.05;;
61085;SDS011;46967;48.876;2.136;2023-05-14T05:59:09;40.33;;;25.27;;
61085;SDS011;46967;48.876;2.136;2023-05-14T06:01:34;38.63;;;25.00;;
61085;SDS011;46967;48.876;2.136;2023-05-14T06:04:00;39.13;;;25.23;;
61085;SDS011;46967;48.876;2.136;2023-05-14T06:06:25;40.42;;;26.55;;
61085;SDS011;46967;48.876;2.136;2023-05-14T06:08:51;41.25;;;25.65;;
61085;SDS011;46967;48.876;2.136;2023-05-14T06:11:16;43.90;;;24.58;;
61085;SDS011;46967;48.876;2.136;2023-05-14T06:13:42;39.97;;;25.13;;
61085;SDS011;46967;48.876;2.136;2023-05-14T06:16:07;40.47;;;23.23;;
61085;SDS011;46967;48.876;2.136;2023-05-14T06:18:32;40.00;;;23.02;;
61085;SDS011;46967;48.876;2.136;2023-05-14T06:20:58;41.00;;;24.08;;
61085;SDS011;46967;48.876;2.136;2023-05-14T06:23:24;38.13;;;23.95;;
61085;SDS011;46967;48.876;2.136;2023-05-14T06:25:50;39.47;;;23.20;;
61085;SDS011;46967;48.876;2.136;2023-05-14T06:28:16;41.67;;;24.15;;
61085;SDS011;46967;48.876;2.136;2023-05-14T06:30:41;39.25;;;24.70;;
61085;SDS011;46967;48.876;2.136;2023-05-14T06:33:06;37.30;;;22.88;;
61085;SDS011;46967;48.876;2.136;2023-05-14T06:35:32;41.75;;;23.27;;
61085;SDS011;46967;48.876;2.136;2023-05-14T06:37:58;38.92;;;22.60;;
61085;SDS011;46967;48.876;2.136;2023-05-14T06:40:23;34.45;;;22.63;;
61085;SDS011;46967;48.876;2.136;2023-05-14T06:42:49;36.15;;;22.42;;
61085;SDS011;46967;48.876;2.136;2023-05-14T06:45:14;37.28;;;22.42;;
61085;SDS011;46967;48.876;2.136;2023-05-14T06:47:39;42.75;;;23.27;;
61085;SDS011;46967;48.876;2.136;2023-05-14T06:50:05;39.13;;;24.27;;
61085;SDS011;46967;48.876;2.136;2023-05-14T06:52:31;37.38;;;22.90;;
61085;SDS011;46967;48.876;2.136;2023-05-14T06:54:56;38.88;;;23.35;;
61085;SDS011;46967;48.876;2.136;2023-05-14T06:57:21;36.47;;;20.92;;
61085;SDS011;46967;48.876;2.136;2023-05-14T06:59:47;36.70;;;23.00;;
61085;SDS011;46967;48.876;2.136;2023-05-14T07:02:12;33.88;;;22.23;;
61085;SDS011;46967;48.876;2.136;2023-05-14T07:04:38;35.15;;;21.38;;
61085;SDS011;46967;48.876;2.136;2023-05-14T07:07:04;33.47;;;21.38;;
61085;SDS011;46967;48.876;2.136;2023-05-14T07:09:29;35.72;;;21.45;;
61085;SDS011;46967;48.876;2.136;2023-05-14T07:11:55;38.40;;;21.77;;
61085;SDS011;46967;48.876;2.136;2023-05-14T07:14:20;33.20;;;21.27;;
61085;SDS011;46967;48.876;2.136;2023-05-14T07:16:45;32.65;;;21.42;;
61085;SDS011;46967;48.876;2.136;2023-05-14T07:19:11;37.55;;;22.60;;
61085;SDS011;46967;48.876;2.136;2023-05-14T07:21:36;34.00;;;21.38;;
61085;SDS011;46967;48.876;2.136;2023-05-14T07:24:02;35.35;;;21.67;;
61085;SDS011;46967;48.876;2.136;2023-05-14T07:26:27;34.65;;;21.10;;
61085;SDS011;46967;48.876;2.136;2023-05-14T07:28:53;39.28;;;21.30;;
61085;SDS011;46967;48.876;2.136;2023-05-14T07:31:18;39.45;;;21.45;;
61085;SDS011;46967;48.876;2.136;2023-05-14T07:33:43;35.03;;;21.60;;
61085;SDS011;46967;48.876;2.136;2023-05-14T07:36:09;37.30;;;21.60;;
61085;SDS011;46967;48.876;2.136;2023-05-14T07:38:34;37.08;;;21.83;;
61085;SDS011;46967;48.876;2.136;2023-05-14T07:41:00;34.20;;;20.95;;
61085;SDS011;46967;48.876;2.136;2023-05-14T07:43:25;35.85;;;22.00;;
61085;SDS011;46967;48.876;2.136;2023-05-14T07:45:51;34.25;;;21.20;;
61085;SDS011;46967;48.876;2.136;2023-05-14T07:48:16;40.97;;;21.70;;
61085;SDS011;46967;48.876;2.136;2023-05-14T07:50:41;32.33;;;21.10;;
61085;SDS011;46967;48.876;2.136;2023-05-14T07:53:07;38.20;;;22.33;;
61085;SDS011;46967;48.876;2.136;2023-05-14T07:55:32;34.88;;;21.77;;
61085;SDS011;46967;48.876;2.136;2023-05-14T07:58:04;36.83;;;21.98;;
61085;SDS011;46967;48.876;2.136;2023-05-14T08:00:30;33.70;;;21.05;;
61085;SDS011;46967;48.876;2.136;2023-05-14T08:02:55;40.13;;;21.40;;
61085;SDS011;46967;48.876;2.136;2023-05-14T08:05:21;35.13;;;20.30;;
61085;SDS011;46967;48.876;2.136;2023-05-14T08:07:46;35.00;;;19.55;;
61085;SDS011;46967;48.876;2.136;2023-05-14T08:10:12;35.42;;;21.35;;
61085;SDS011;46967;48.876;2.136;2023-05-14T08:12:37;32.40;;;20.63;;
61085;SDS011;46967;48.876;2.136;2023-05-14T08:15:03;35.08;;;20.58;;
61085;SDS011;46967;48.876;2.136;2023-05-14T08:17:29;37.60;;;20.85;;
61085;SDS011;46967;48.876;2.136;2023-05-14T08:19:55;32.45;;;20.20;;
61085;SDS011;46967;48.876;2.136;2023-05-14T08:22:20;37.30;;;20.92;;
61085;SDS011;46967;48.876;2.136;2023-05-14T08:24:45;34.13;;;19.92;;
61085;SDS011;46967;48.876;2.136;2023-05-14T08:27:11;34.53;;;21.55;;
61085;SDS011;46967;48.876;2.136;2023-05-14T08:29:36;32.60;;;20.33;;
61085;SDS011;46967;48.876;2.136;2023-05-14T08:32:01;31.33;;;19.58;;
61085;SDS011;46967;48.876;2.136;2023-05-14T08:34:27;37.63;;;19.55;;
61085;SDS011;46967;48.876;2.136;2023-05-14T08:36:52;30.90;;;19.10;;
61085;SDS011;46967;48.876;2.136;2023-05-14T08:39:18;31.50;;;18.25;;
61085;SDS011;46967;48.876;2.136;2023-05-14T08:41:43;30.67;;;18.00;;
61085;SDS011;46967;48.876;2.136;2023-05-14T08:44:14;27.17;;;17.98;;
61085;SDS011;46967;48.876;2.136;2023-05-14T08:46:43;30.17;;;18.40;;
61085;SDS011;46967;48.876;2.136;2023-05-14T08:49:31;30.88;;;19.38;;
61085;SDS011;46967;48.876;2.136;2023-05-14T08:52:11;31.60;;;18.75;;
61085;SDS011;46967;48.876;2.136;2023-05-14T08:54:37;29.02;;;18.83;;
61085;SDS011;46967;48.876;2.136;2023-05-14T08:57:03;28.25;;;18.58;;
61085;SDS011;46967;48.876;2.136;2023-05-14T08:59:29;34.20;;;18.02;;
61085;SDS011;46967;48.876;2.136;2023-05-14T09:01:55;26.42;;;17.05;;
61085;SDS011;46967;48.876;2.136;2023-05-14T09:04:24;25.20;;;17.17;;
61085;SDS011;46967;48.876;2.136;2023-05-14T09:06:52;29.55;;;18.02;;
61085;SDS011;46967;48.876;2.136;2023-05-14T09:09:18;21.77;;;15.50;;
61085;SDS011;46967;48.876;2.136;2023-05-14T09:11:46;23.75;;;15.27;;
61085;SDS011;46967;48.876;2.136;2023-05-14T09:14:12;25.02;;;15.55;;
61085;SDS011;46967;48.876;2.136;2023-05-14T09:16:38;22.88;;;14.55;;
61085;SDS011;46967;48.876;2.136;2023-05-14T09:19:06;19.48;;;14.70;;
61085;SDS011;46967;48.876;2.136;2023-05-14T09:21:32;26.10;;;14.82;;
61085;SDS011;46967;48.876;2.136;2023-05-14T09:23:58;22.67;;;15.30;;
61085;SDS011;46967;48.876;2.136;2023-05-14T09:26:24;26.75;;;15.52;;
61085;SDS011;46967;48.876;2.136;2023-05-14T09:28:56;23.80;;;15.43;;
61085;SDS011;46967;48.876;2.136;2023-05-14T09:31:29;24.65;;;16.25;;
61085;SDS011;46967;48.876;2.136;2023-05-14T09:33:56;23.10;;;15.77;;
61085;SDS011;46967;48.876;2.136;2023-05-14T09:36:22;23.33;;;15.77;;
61085;SDS011;46967;48.876;2.136;2023-05-14T09:38:51;22.67;;;15.20;;
61085;SDS011;46967;48.876;2.136;2023-05-14T09:41:27;25.95;;;15.55;;
61085;SDS011;46967;48.876;2.136;2023-05-14T09:43:53;22.40;;;14.90;;
61085;SDS011;46967;48.876;2.136;2023-05-14T09:46:20;22.00;;;14.45;;
61085;SDS011;46967;48.876;2.136;2023-05-14T09:48:47;24.10;;;14.45;;
61085;SDS011;46967;48.876;2.136;2023-05-14T09:51:13;19.38;;;13.18;;
61085;SDS011;46967;48.876;2.136;2023-05-14T09:53:38;21.67;;;14.75;;
61085;SDS011;46967;48.876;2.136;2023-05-14T09:56:05;24.13;;;14.02;;
61085;SDS011;46967;48.876;2.136;2023-05-14T09:58:30;22.95;;;14.02;;
61085;SDS011;46967;48.876;2.136;2023-05-14T10:00:56;19.35;;;13.00;;
61085;SDS011;46967;48.876;2.136;2023-05-14T10:03:24;18.23;;;13.95;;
61085;SDS011;46967;48.876;2.136;2023-05-14T10:05:50;21.98;;;13.43;;
61085;SDS011;46967;48.876;2.136;2023-05-14T10:08:26;17.85;;;12.93;;
61085;SDS011;46967;48.876;2.136;2023-05-14T10:10:57;18.27;;;11.95;;
61085;SDS011;46967;48.876;2.136;2023-05-14T10:13:29;18.35;;;12.02;;
61085;SDS011;46967;48.876;2.136;2023-05-14T10:18:41;16.25;;;11.75;;
61085;SDS011;46967;48.876;2.136;2023-05-14T10:21:12;15.90;;;12.40;;
61085;SDS011;46967;48.876;2.136;2023-05-14T10:23:38;17.13;;;12.38;;
61085;SDS011;46967;48.876;2.136;2023-05-14T10:26:05;17.65;;;12.05;;
61085;SDS011;46967;48.876;2.136;2023-05-14T10:28:31;16.58;;;12.02;;
61085;SDS011;46967;48.876;2.136;2023-05-14T10:30:58;18.63;;;12.20;;
61085;SDS011;46967;48.876;2.136;2023-05-14T10:33:24;17.35;;;12.50;;
61085;SDS011;46967;48.876;2.136;2023-05-14T10:36:05;18.25;;;13.52;;
61085;SDS011;46967;48.876;2.136;2023-05-14T10:38:34;17.58;;;13.25;;
61085;SDS011;46967;48.876;2.136;2023-05-14T10:41:02;18.55;;;12.30;;
61085;SDS011;46967;48.876;2.136;2023-05-14T10:43:29;17.70;;;12.93;;
61085;SDS011;46967;48.876;2.136;2023-05-14T10:45:58;16.88;;;12.02;;
61085;SDS011;46967;48.876;2.136;2023-05-14T10:48:24;17.00;;;13.18;;
61085;SDS011;46967;48.876;2.136;2023-05-14T10:50:50;19.90;;;12.23;;
61085;SDS011;46967;48.876;2.136;2023-05-14T10:53:16;16.30;;;11.70;;
61085;SDS011;46967;48.876;2.136;2023-05-14T10:55:42;14.27;;;11.70;;
61085;SDS011;46967;48.876;2.136;2023-05-14T10:58:11;15.75;;;11.93;;
61085;SDS011;46967;48.876;2.136;2023-05-14T11:00:37;17.20;;;12.57;;
61085;SDS011;46967;48.876;2.136;2023-05-14T11:03:04;16.23;;;11.77;;
61085;SDS011;46967;48.876;2.136;2023-05-14T11:05:30;17.42;;;12.15;;
61085;SDS011;46967;48.876;2.136;2023-05-14T11:07:57;16.85;;;11.70;;
61085;SDS011;46967;48.876;2.136;2023-05-14T11:10:23;18.02;;;13.20;;
61085;SDS011;46967;48.876;2.136;2023-05-14T11:12:54;16.27;;;11.30;;
61085;SDS011;46967;48.876;2.136;2023-05-14T11:15:21;16.80;;;12.20;;
61085;SDS011;46967;48.876;2.136;2023-05-14T11:17:49;15.30;;;11.98;;
61085;SDS011;46967;48.876;2.136;2023-05-14T11:20:15;15.30;;;11.50;;
61085;SDS011;46967;48.876;2.136;2023-05-14T11:22:42;19.27;;;12.38;;
61085;SDS011;46967;48.876;2.136;2023-05-14T11:25:09;18.92;;;12.05;;
61085;SDS011;46967;48.876;2.136;2023-05-14T11:27:38;15.45;;;11.68;;
61085;SDS011;46967;48.876;2.136;2023-05-14T11:30:04;15.43;;;11.55;;
61085;SDS011;46967;48.876;2.136;2023-05-14T11:32:36;14.98;;;11.60;;
61085;SDS011;46967;48.876;2.136;2023-05-14T11:35:01;16.15;;;11.75;;
61085;SDS011;46967;48.876;2.136;2023-05-14T11:37:27;14.95;;;11.10;;
61085;SDS011;46967;48.876;2.136;2023-05-14T11:39:57;14.55;;;11.75;;
61085;SDS011;46967;48.876;2.136;2023-05-14T11:42:23;18.23;;;12.50;;
61085;SDS011;46967;48.876;2.136;2023-05-14T11:44:50;17.15;;;12.10;;
61085;SDS011;46967;48.876;2.136;2023-05-14T11:47:16;17.00;;;12.20;;
61085;SDS011;46967;48.876;2.136;2023-05-14T11:49:43;15.65;;;11.88;;
61085;SDS011;46967;48.876;2.136;2023-05-14T11:52:10;12.82;;;10.75;;
61085;SDS011;46967;48.876;2.136;2023-05-14T11:54:38;13.85;;;11.13;;
61085;SDS011;46967;48.876;2.136;2023-05-14T11:57:09;16.85;;;11.15;;
61085;SDS011;46967;48.876;2.136;2023-05-14T11:59:36;15.15;;;11.05;;
61085;SDS011;46967;48.876;2.136;2023-05-14T12:02:02;15.55;;;11.73;;
61085;SDS011;46967;48.876;2.136;2023-05-14T12:04:31;14.82;;;11.18;;
61085;SDS011;46967;48.876;2.136;2023-05-14T12:06:58;14.13;;;11.13;;
61085;SDS011;46967;48.876;2.136;2023-05-14T12:09:24;13.60;;;11.32;;
61085;SDS011;46967;48.876;2.136;2023-05-14T12:11:50;15.02;;;11.55;;
61085;SDS011;46967;48.876;2.136;2023-05-14T12:14:18;15.00;;;10.80;;
61085;SDS011;46967;48.876;2.136;2023-05-14T12:16:44;14.18;;;10.82;;
61085;SDS011;46967;48.876;2.136;2023-05-14T12:19:12;13.80;;;10.52;;
61085;SDS011;46967;48.876;2.136;2023-05-14T12:21:39;17.70;;;10.82;;
61085;SDS011;46967;48.876;2.136;2023-05-14T12:24:14;14.63;;;10.77;;
61085;SDS011;46967;48.876;2.136;2023-05-14T12:26:44;16.42;;;10.98;;
61085;SDS011;46967;48.876;2.136;2023-05-14T12:29:11;14.45;;;10.10;;
61085;SDS011;46967;48.876;2.136;2023-05-14T12:31:43;15.15;;;8.68;;
61085;SDS011;46967;48.876;2.136;2023-05-14T12:34:10;10.80;;;8.68;;
61085;SDS011;46967;48.876;2.136;2023-05-14T12:36:35;11.82;;;9.63;;
61085;SDS011;46967;48.876;2.136;2023-05-14T12:39:01;14.48;;;9.77;;
61085;SDS011;46967;48.876;2.136;2023-05-14T12:41:28;11.32;;;8.18;;
61085;SDS011;46967;48.876;2.136;2023-05-14T12:43:54;14.45;;;8.75;;
61085;SDS011;46967;48.876;2.136;2023-05-14T12:46:20;13.32;;;8.18;;
61085;SDS011;46967;48.876;2.136;2023-05-14T12:48:45;10.25;;;7.95;;
61085;SDS011;46967;48.876;2.136;2023-05-14T12:51:11;11.20;;;7.47;;
61085;SDS011;46967;48.876;2.136;2023-05-14T12:53:36;12.07;;;8.43;;
61085;SDS011;46967;48.876;2.136;2023-05-14T12:56:02;12.25;;;8.05;;
61085;SDS011;46967;48.876;2.136;2023-05-14T12:58:27;10.20;;;8.18;;
61085;SDS011;46967;48.876;2.136;2023-05-14T13:00:53;10.07;;;7.95;;
61085;SDS011;46967;48.876;2.136;2023-05-14T13:03:18;11.23;;;7.15;;
61085;SDS011;46967;48.876;2.136;2023-05-14T13:05:44;8.90;;;7.03;;
61085;SDS011;46967;48.876;2.136;2023-05-14T13:08:09;11.63;;;6.95;;
61085;SDS011;46967;48.876;2.136;2023-05-14T13:10:34;8.57;;;6.65;;
61085;SDS011;46967;48.876;2.136;2023-05-14T13:13:00;10.48;;;6.80;;
61085;SDS011;46967;48.876;2.136;2023-05-14T13:15:28;10.43;;;6.50;;
61085;SDS011;46967;48.876;2.136;2023-05-14T13:17:55;10.35;;;6.60;;
61085;SDS011;46967;48.876;2.136;2023-05-14T13:20:20;9.98;;;6.60;;
61085;SDS011;46967;48.876;2.136;2023-05-14T13:22:47;11.40;;;6.38;;
61085;SDS011;46967;48.876;2.136;2023-05-14T13:25:12;8.95;;;6.47;;
61085;SDS011;46967;48.876;2.136;2023-05-14T13:27:38;9.07;;;6.53;;
61085;SDS011;46967;48.876;2.136;2023-05-14T13:30:03;8.82;;;5.60;;
61085;SDS011;46967;48.876;2.136;2023-05-14T13:32:29;11.10;;;6.00;;
61085;SDS011;46967;48.876;2.136;2023-05-14T13:34:54;11.98;;;6.25;;
61085;SDS011;46967;48.876;2.136;2023-05-14T13:37:20;9.57;;;6.13;;
61085;SDS011;46967;48.876;2.136;2023-05-14T13:39:45;9.70;;;5.85;;
61085;SDS011;46967;48.876;2.136;2023-05-14T13:42:10;11.43;;;6.57;;
61085;SDS011;46967;48.876;2.136;2023-05-14T13:44:36;11.32;;;6.15;;
61085;SDS011;46967;48.876;2.136;2023-05-14T13:47:01;10.43;;;5.50;;
61085;SDS011;46967;48.876;2.136;2023-05-14T13:49:26;10.65;;;5.25;;
61085;SDS011;46967;48.876;2.136;2023-05-14T13:51:52;7.18;;;5.18;;
61085;SDS011;46967;48.876;2.136;2023-05-14T13:54:17;9.45;;;5.30;;
61085;SDS011;46967;48.876;2.136;2023-05-14T13:56:42;9.63;;;4.82;;
61085;SDS011;46967;48.876;2.136;2023-05-14T13:59:08;8.98;;;5.00;;
61085;SDS011;46967;48.876;2.136;2023-05-14T14:01:33;8.98;;;4.90;;
61085;SDS011;46967;48.876;2.136;2023-05-14T14:03:58;8.05;;;4.57;;
61085;SDS011;46967;48.876;2.136;2023-05-14T14:06:24;8.30;;;4.72;;
61085;SDS011;46967;48.876;2.136;2023-05-14T14:08:51;12.05;;;4.70;;
61085;SDS011;46967;48.876;2.136;2023-05-14T14:11:17;10.82;;;4.65;;
61085;SDS011;46967;48.876;2.136;2023-05-14T14:13:42;9.75;;;3.97;;
61085;SDS011;46967;48.876;2.136;2023-05-14T14:16:08;8.10;;;3.72;;
61085;SDS011;46967;48.876;2.136;2023-05-14T14:18:34;7.43;;;3.80;;
61085;SDS011;46967;48.876;2.136;2023-05-14T14:20:59;11.88;;;4.20;;
61085;SDS011;46967;48.876;2.136;2023-05-14T14:23:25;9.63;;;3.70;;